Time;durP1;ratioP1;P1;durP2;ratioP2;P2;SDS_P1;SDS_P2;PMS_P1;PMS_P2;Temp;Humidity;BMP_temperature;BMP_pressure;BME280_temperature;BME280_humidity;BME280_pressure;Samples;Min_cycle;Max_cycle;Signal;HPM_P1;HPM_P2
2023/04/28 11:27:07;;;;;;;6.10;0.90;;;17.60;99.90;;;;;;5082605;28;20448;-52
2023/04/28 11:29:35;;;;;;;4.50;1.00;;;17.40;99.90;;;;;;4968801;28;20893;-55
2023/04/28 11:32:01;;;;;;;5.05;1.00;;;17.50;99.90;;;;;;4971371;28;20383;-55
2023/04/28 11:34:27;;;;;;;5.32;0.90;;;17.50;99.90;;;;;;4970256;28;20411;-55
2023/04/28 11:36:52;;;;;;;4.30;0.80;;;17.70;99.90;;;;;;4970558;28;20388;-55
2023/04/28 11:39:30;;;;;;;4.17;0.90;;;17.80;99.90;;;;;;4970154;28;20447;-55
2023/04/28 11:41:57;;;;;;;4.93;1.13;;;18.00;99.90;;;;;;4970905;28;20396;-55
2023/04/28 11:44:27;;;;;;;4.50;1.10;;;18.10;99.90;;;;;;4969634;28;20746;-55
2023/04/28 11:47:01;;;;;;;5.00;1.20;;;18.00;99.90;;;;;;4970853;28;20387;-55
2023/04/28 11:49:32;;;;;;;5.70;1.20;;;17.90;99.90;;;;;;4969769;28;21094;-55
2023/04/28 11:52:04;;;;;;;4.30;0.93;;;17.90;99.90;;;;;;4971079;28;20476;-55
2023/04/28 11:54:31;;;;;;;4.50;1.30;;;18.00;99.90;;;;;;4969656;28;20467;-55
2023/04/28 11:56:58;;;;;;;5.20;1.30;;;18.10;99.90;;;;;;4970794;28;20400;-55
2023/04/28 11:59:29;;;;;;;4.70;1.10;;;18.20;99.90;;;;;;4970120;28;20884;-55
2023/04/28 12:02:02;;;;;;;4.40;1.08;;;18.30;99.90;;;;;;4970837;28;20384;-54
2023/04/28 12:04:49;;;;;;;4.60;1.20;;;18.20;99.90;;;;;;4970060;28;20458;-55
2023/04/28 12:07:17;;;;;;;4.50;1.20;;;18.20;99.90;;;;;;4971335;28;20739;-55
2023/04/28 12:09:44;;;;;;;5.10;1.30;;;18.00;99.90;;;;;;4973894;28;20420;-54
2023/04/28 12:12:12;;;;;;;5.38;1.50;;;17.80;1.00;;;;;;4973303;28;20482;-55
2023/04/28 12:14:57;;;;;;;5.20;1.60;;;17.70;1.00;;;;;;4973639;28;20412;-55
2023/04/28 12:17:26;;;;;;;5.80;2.25;;;17.70;1.00;;;;;;4973236;28;20393;-55
2023/04/28 12:19:56;;;;;;;5.43;1.80;;;17.80;1.00;;;;;;4973531;28;20459;-55
2023/04/28 12:22:24;;;;;;;7.80;3.03;;;17.80;1.00;;;;;;4973083;28;20484;-55
2023/04/28 12:25:11;;;;;;;5.55;2.15;;;17.60;1.00;;;;;;4973537;28;20438;-55
2023/04/28 12:27:40;;;;;;;6.75;2.70;;;17.50;1.00;;;;;;4972716;28;20905;-55
2023/04/28 12:30:19;;;;;;;5.82;2.30;;;17.40;1.00;;;;;;4973405;28;20391;-55
2023/04/28 12:32:45;;;;;;;6.00;2.10;;;17.20;1.00;;;;;;4973606;28;20393;-55
2023/04/28 12:35:10;;;;;;;5.40;1.50;;;16.90;1.00;;;;;;4972314;28;20419;-55
2023/04/28 12:37:40;;;;;;;4.80;1.30;;;16.70;1.00;;;;;;4974248;28;20388;-55
2023/04/28 12:40:07;;;;;;;4.95;1.20;;;16.60;1.00;;;;;;4973025;28;20861;-55
2023/04/28 12:42:33;;;;;;;4.72;1.08;;;16.50;1.00;;;;;;4973554;28;20385;-55
2023/04/28 12:44:58;;;;;;;4.40;1.30;;;16.40;1.00;;;;;;4971212;28;21470;-55
2023/04/28 12:47:24;;;;;;;4.60;1.10;;;16.40;1.00;;;;;;4972634;28;20534;-55
2023/04/28 12:49:52;;;;;;;4.70;1.10;;;16.40;1.00;;;;;;4978276;28;20749;-55
2023/04/28 12:52:18;;;;;;;5.60;1.73;;;16.40;1.00;;;;;;4972753;28;20411;-55
2023/04/28 12:54:46;;;;;;;5.60;1.80;;;16.50;1.00;;;;;;4973728;28;20435;-55
2023/04/28 12:57:12;;;;;;;5.22;1.70;;;16.40;1.00;;;;;;4969867;28;20549;-55
2023/04/28 12:59:38;;;;;;;4.80;1.48;;;16.50;1.00;;;;;;4964673;28;20475;-55
2023/04/28 13:02:04;;;;;;;4.63;1.25;;;16.60;1.00;;;;;;4973008;28;20403;-55
2023/04/28 13:04:30;;;;;;;4.80;0.90;;;16.70;1.00;;;;;;4972454;28;20392;-55
2023/04/28 13:06:57;;;;;;;4.10;0.80;;;16.90;99.90;;;;;;4972748;28;20549;-55
2023/04/28 13:09:24;;;;;;;5.28;1.50;;;17.10;99.90;;;;;;4971891;28;20400;-55
2023/04/28 13:11:49;;;;;;;4.60;0.95;;;17.20;99.90;;;;;;4970846;28;20405;-55
2023/04/28 13:14:15;;;;;;;4.40;1.10;;;17.40;99.90;;;;;;4965466;28;20521;-55
2023/04/28 13:16:40;;;;;;;4.90;1.20;;;17.50;99.90;;;;;;4969469;28;20415;-55
2023/04/28 13:19:12;;;;;;;5.45;1.38;;;17.50;99.90;;;;;;4972680;28;20455;-56
2023/04/28 13:21:41;;;;;;;6.45;1.20;;;17.60;99.90;;;;;;4972664;28;20380;-56
2023/04/28 13:24:08;;;;;;;5.38;1.70;;;17.80;99.90;;;;;;4972544;28;20487;-55
2023/04/28 13:26:33;;;;;;;5.30;1.30;;;18.30;1.00;;;;;;4971790;28;20389;-55
2023/04/28 13:29:01;;;;;;;5.90;1.90;;;18.80;1.00;;;;;;4972502;28;20749;-58
2023/04/28 13:31:28;;;;;;;8.20;1.73;;;19.10;99.90;;;;;;4972091;28;20376;-55
2023/04/28 13:33:53;;;;;;;5.10;1.38;;;19.20;99.90;;;;;;4972456;28;20419;-55
2023/04/28 13:36:19;;;;;;;5.83;1.60;;;18.90;99.90;;;;;;4971540;28;20400;-55
2023/04/28 13:38:47;;;;;;;8.43;1.55;;;18.60;99.90;;;;;;4972387;28;20395;-55
2023/04/28 13:41:16;;;;;;;6.40;1.20;;;18.40;1.00;;;;;;4971510;28;20403;-55
2023/04/28 13:43:43;;;;;;;4.68;1.10;;;18.50;1.00;;;;;;4972358;28;20451;-55
2023/04/28 13:46:09;;;;;;;5.40;1.20;;;18.40;1.00;;;;;;4971292;28;20492;-55
2023/04/28 13:48:35;;;;;;;4.70;1.20;;;18.50;1.00;;;;;;4972003;28;20380;-56
2023/04/28 13:51:04;;;;;;;5.70;1.70;;;18.50;49.80;;;;;;4972164;28;20380;-55
2023/04/28 13:53:31;;;;;;;4.68;1.20;;;18.50;99.90;;;;;;4971044;28;20376;-56
2023/04/28 13:55:57;;;;;;;5.10;1.20;;;18.40;99.90;;;;;;4971987;28;20392;-55
2023/04/28 13:58:24;;;;;;;6.10;1.40;;;18.40;1.00;;;;;;4971673;28;20405;-55
2023/04/28 14:00:51;;;;;;;4.70;1.10;;;18.50;81.10;;;;;;4971641;28;20393;-55
2023/04/28 14:03:16;;;;;;;5.50;1.23;;;18.40;99.90;;;;;;4971231;28;20384;-56
2023/04/28 14:05:43;;;;;;;5.30;1.47;;;18.30;1.00;;;;;;4972064;28;20466;-55
2023/04/28 14:08:09;;;;;;;5.00;1.40;;;18.30;99.90;;;;;;4971739;28;20400;-56
2023/04/28 14:10:35;;;;;;;13.32;6.93;;;18.60;53.10;;;;;;4971367;28;20530;-56
2023/04/28 14:13:02;;;;;;;26.13;15.90;;;18.80;1.00;;;;;;4971460;28;20475;-56
2023/04/28 14:15:29;;;;;;;5.10;1.60;;;19.00;1.00;;;;;;4970199;28;20529;-55
2023/04/28 14:17:55;;;;;;;5.07;1.52;;;19.00;99.90;;;;;;4971876;28;20459;-55
2023/04/28 14:20:20;;;;;;;6.33;1.50;;;18.90;99.90;;;;;;4971039;28;20472;-56
2023/04/28 14:22:46;;;;;;;4.63;1.27;;;18.90;1.00;;;;;;4971804;28;20396;-56
2023/04/28 14:25:11;;;;;;;5.20;1.57;;;19.10;1.00;;;;;;4970869;28;20388;-56
2023/04/28 14:27:37;;;;;;;5.40;1.40;;;19.10;1.00;;;;;;4970965;28;20454;-56
2023/04/28 14:30:03;;;;;;;5.40;1.70;;;19.00;99.50;;;;;;4971028;28;20484;-56
2023/04/28 14:32:29;;;;;;;6.40;2.00;;;19.00;82.60;;;;;;4970495;28;20695;-56
2023/04/28 14:34:56;;;;;;;6.00;2.03;;;19.10;99.90;;;;;;4971565;28;20416;-56
2023/04/28 14:37:22;;;;;;;7.80;2.20;;;19.20;99.90;;;;;;4970489;28;20491;-56
2023/04/28 14:39:48;;;;;;;8.57;1.50;;;19.20;63.30;;;;;;4971240;28;20480;-56
2023/04/28 14:42:14;;;;;;;5.60;1.80;;;19.00;1.00;;;;;;4970865;28;20391;-56
2023/04/28 14:44:39;;;;;;;5.88;1.50;;;18.80;99.90;;;;;;4971257;28;20899;-55
2023/04/28 14:47:05;;;;;;;5.75;2.00;;;18.50;99.90;;;;;;4970915;28;20475;-56
2023/04/28 14:49:31;;;;;;;5.90;1.70;;;18.30;99.90;;;;;;4970829;28;20388;-56
2023/04/28 14:51:58;;;;;;;5.73;1.80;;;18.20;1.00;;;;;;4971002;28;20416;-56
2023/04/28 14:54:24;;;;;;;5.40;1.55;;;18.20;1.00;;;;;;4970526;28;20917;-56
2023/04/28 14:56:49;;;;;;;5.20;1.50;;;18.40;1.00;;;;;;4971234;28;20384;-55
2023/04/28 14:59:15;;;;;;;4.97;1.40;;;18.50;1.00;;;;;;4970247;28;21206;-56
2023/04/28 15:01:42;;;;;;;4.90;1.50;;;18.40;99.90;;;;;;4970982;28;20392;-56
2023/04/28 15:04:08;;;;;;;5.15;1.60;;;18.40;1.00;;;;;;4971116;28;20399;-55
2023/04/28 15:06:34;;;;;;;5.67;1.63;;;18.40;1.00;;;;;;4969910;28;20876;-56
2023/04/28 15:09:00;;;;;;;5.00;1.60;;;18.40;1.00;;;;;;4971186;28;20873;-55
2023/04/28 15:11:26;;;;;;;5.30;1.60;;;18.50;1.00;;;;;;4970489;28;20572;-56
2023/04/28 15:13:51;;;;;;;5.30;1.60;;;18.60;1.00;;;;;;4971022;28;20416;-56
2023/04/28 15:16:17;;;;;;;4.88;1.27;;;18.60;99.90;;;;;;4969898;28;20396;-56
2023/04/28 15:18:43;;;;;;;4.47;1.10;;;18.60;99.90;;;;;;4970802;28;20388;-56
2023/04/28 15:21:09;;;;;;;5.30;1.00;;;18.40;1.00;;;;;;4970704;28;20483;-55
2023/04/28 15:23:35;;;;;;;4.47;0.98;;;18.20;99.90;;;;;;4970848;28;20845;-56
2023/04/28 15:26:01;;;;;;;4.57;1.05;;;18.10;99.90;;;;;;4970844;28;20504;-56
2023/04/28 15:28:27;;;;;;;4.40;0.90;;;18.30;99.90;;;;;;4969598;28;20881;-56
2023/04/28 15:30:52;;;;;;;5.10;1.70;;;18.50;1.00;;;;;;4970806;28;20395;-56
2023/04/28 15:33:18;;;;;;;4.80;1.00;;;18.70;99.90;;;;;;4969410;28;20388;-56
2023/04/28 15:35:44;;;;;;;4.37;1.10;;;18.80;99.90;;;;;;4970454;28;20882;-56
2023/04/28 15:38:10;;;;;;;4.70;1.25;;;18.90;99.90;;;;;;4970928;28;20384;-56
2023/04/28 15:40:38;;;;;;;4.90;1.20;;;18.90;13.90;;;;;;4970060;28;20479;-56
2023/04/28 15:43:04;;;;;;;4.50;0.90;;;18.80;99.90;;;;;;4973444;28;20388;-56
2023/04/28 15:45:30;;;;;;;5.80;0.80;;;18.80;53.40;;;;;;4973714;28;21248;-56
2023/04/28 15:47:56;;;;;;;4.30;0.90;;;18.70;99.90;;;;;;4974119;28;20396;-55
2023/04/28 15:50:21;;;;;;;5.10;1.00;;;18.60;99.90;;;;;;4973710;28;20942;-56
2023/04/28 15:52:48;;;;;;;4.10;0.70;;;18.40;99.90;;;;;;4974111;28;20388;-56
2023/04/28 15:55:15;;;;;;;4.00;0.70;;;18.30;99.90;;;;;;4973561;28;20773;-56
2023/04/28 15:57:42;;;;;;;4.10;0.60;;;18.20;99.90;;;;;;4974059;28;20403;-56
2023/04/28 16:00:10;;;;;;;4.57;0.70;;;17.80;99.90;;;;;;4974397;28;20857;-55
2023/04/28 16:02:37;;;;;;;4.27;0.70;;;17.70;99.90;;;;;;4973070;28;20443;-55
2023/04/28 16:05:04;;;;;;;4.10;0.70;;;17.50;99.90;;;;;;4973769;28;20473;-55
2023/04/28 16:07:36;;;;;;;4.40;0.70;;;17.30;1.00;;;;;;4973405;28;20403;-55
2023/04/28 16:10:03;;;;;;;4.57;0.70;;;17.10;1.00;;;;;;4974193;28;20393;-56
2023/04/28 16:12:29;;;;;;;4.83;0.80;;;17.00;1.00;;;;;;4973188;28;20397;-56
2023/04/28 16:14:55;;;;;;;4.20;0.70;;;16.90;1.00;;;;;;4973981;28;20456;-56
2023/04/28 16:17:21;;;;;;;4.70;0.60;;;16.80;1.00;;;;;;4973063;28;20476;-56
2023/04/28 16:19:48;;;;;;;3.72;0.50;;;16.70;1.00;;;;;;4973715;28;20392;-56
2023/04/28 16:22:14;;;;;;;4.10;0.80;;;16.80;1.00;;;;;;4973488;28;20904;-56
2023/04/28 16:24:42;;;;;;;3.67;0.43;;;16.90;1.00;;;;;;4973311;28;20400;-56
2023/04/28 16:27:08;;;;;;;4.00;0.80;;;17.10;1.00;;;;;;4973253;28;20459;-56
2023/04/28 16:29:35;;;;;;;4.10;0.80;;;17.10;1.00;;;;;;4973237;28;20451;-56
2023/04/28 16:32:01;;;;;;;3.87;0.60;;;17.10;1.00;;;;;;4973319;28;20924;-56
2023/04/28 16:34:26;;;;;;;3.90;0.70;;;17.10;1.00;;;;;;4972512;28;20492;-56
2023/04/28 16:36:52;;;;;;;3.93;0.70;;;17.20;1.00;;;;;;4968561;28;20408;-56
2023/04/28 16:39:18;;;;;;;3.80;0.70;;;17.10;1.00;;;;;;4973480;28;20887;-55
2023/04/28 16:41:43;;;;;;;7.28;0.80;;;16.60;1.00;;;;;;4973079;28;20390;-56
2023/04/28 16:44:10;;;;;;;4.18;0.80;;;16.50;1.00;;;;;;4973278;28;20392;-56
2023/04/28 16:46:38;;;;;;;4.40;1.20;;;16.50;1.00;;;;;;4981190;28;20982;-56
2023/04/28 16:49:04;;;;;;;5.30;0.80;;;16.70;1.00;;;;;;4976904;28;20452;-56
2023/04/28 16:51:31;;;;;;;4.60;1.00;;;16.70;1.00;;;;;;4959556;28;22051;-56
2023/04/28 16:53:57;;;;;;;4.20;0.98;;;16.90;1.00;;;;;;4971728;28;20424;-56
2023/04/28 16:56:23;;;;;;;4.00;0.80;;;16.60;1.00;;;;;;4972424;28;20408;-56
2023/04/28 16:58:49;;;;;;;4.00;0.90;;;16.70;1.00;;;;;;4972921;28;20905;-56
2023/04/28 17:01:14;;;;;;;4.00;0.80;;;16.80;1.00;;;;;;4971913;28;20388;-56
2023/04/28 17:03:40;;;;;;;4.00;0.80;;;16.80;1.00;;;;;;4972742;28;20467;-55
2023/04/28 17:06:07;;;;;;;4.20;0.70;;;16.80;1.00;;;;;;4972621;28;20758;-57
2023/04/28 17:08:33;;;;;;;3.92;0.75;;;16.90;1.00;;;;;;4972359;28;20496;-56
2023/04/28 17:11:02;;;;;;;3.90;0.70;;;16.90;1.00;;;;;;4972477;28;20763;-56
2023/04/28 17:13:27;;;;;;;4.20;0.80;;;16.90;1.00;;;;;;4971527;28;21035;-56
2023/04/28 17:15:54;;;;;;;4.80;1.55;;;17.10;1.00;;;;;;4972263;28;20512;-56
2023/04/28 17:18:20;;;;;;;4.00;0.70;;;17.30;1.00;;;;;;4971480;28;20475;-55
2023/04/28 17:20:46;;;;;;;4.50;0.80;;;17.40;1.00;;;;;;4972483;28;20479;-56
2023/04/28 17:23:12;;;;;;;4.23;0.70;;;17.40;1.00;;;;;;4972619;28;20878;-56
2023/04/28 17:25:38;;;;;;;4.40;0.90;;;17.40;1.00;;;;;;4972818;28;20479;-56
2023/04/28 17:28:04;;;;;;;5.43;1.00;;;17.40;1.00;;;;;;4972361;28;20408;-56
2023/04/28 17:30:29;;;;;;;4.50;1.00;;;17.50;1.00;;;;;;4971848;28;20474;-56
2023/04/28 17:32:55;;;;;;;4.65;0.80;;;17.40;1.00;;;;;;4971824;28;20447;-55
2023/04/28 17:35:21;;;;;;;4.40;1.10;;;17.40;1.00;;;;;;4971781;28;20499;-56
2023/04/28 17:37:46;;;;;;;4.47;0.90;;;17.40;1.00;;;;;;4972306;28;20392;-56
2023/04/28 17:40:12;;;;;;;4.53;0.85;;;17.40;1.00;;;;;;4971307;28;20858;-56
2023/04/28 17:42:38;;;;;;;5.43;0.90;;;17.30;1.00;;;;;;4971690;28;20396;-56
2023/04/28 17:45:04;;;;;;;4.30;0.80;;;17.30;1.00;;;;;;4972142;28;20387;-56
2023/04/28 17:47:31;;;;;;;4.50;0.80;;;17.20;1.00;;;;;;4970959;28;20396;-56
2023/04/28 17:49:56;;;;;;;4.50;0.70;;;17.30;1.00;;;;;;4971366;28;20392;-55
2023/04/28 17:52:22;;;;;;;4.57;1.03;;;17.20;1.00;;;;;;4959799;28;20907;-56
2023/04/28 17:54:48;;;;;;;5.00;1.07;;;17.20;1.00;;;;;;4960907;28;20421;-55
2023/04/28 17:57:14;;;;;;;4.63;1.25;;;17.10;1.00;;;;;;4952333;29;20412;-55
2023/04/28 17:59:41;;;;;;;4.63;1.20;;;17.10;1.00;;;;;;4955683;28;20400;-56
2023/04/28 18:02:10;;;;;;;4.75;1.15;;;17.10;1.00;;;;;;4971848;28;20400;-55
2023/04/28 18:04:36;;;;;;;4.53;0.88;;;17.10;1.00;;;;;;4962148;28;20897;-56
2023/04/28 18:07:02;;;;;;;16.20;8.38;;;17.20;1.00;;;;;;4970171;28;20467;-56
2023/04/28 18:09:30;;;;;;;6.63;2.17;;;17.10;1.00;;;;;;4969476;28;20875;-56
2023/04/28 18:11:56;;;;;;;4.43;0.95;;;17.10;1.00;;;;;;4970981;28;20392;-56
2023/04/28 18:14:23;;;;;;;9.00;2.78;;;17.00;1.00;;;;;;4970662;28;20424;-56
2023/04/28 18:16:49;;;;;;;7.05;1.40;;;16.90;1.00;;;;;;4971535;28;20403;-56
2023/04/28 18:19:15;;;;;;;5.97;1.60;;;16.90;1.00;;;;;;4970558;28;20874;-55
2023/04/28 18:21:40;;;;;;;4.50;1.10;;;16.80;1.00;;;;;;4971550;28;20396;-56
2023/04/28 18:24:06;;;;;;;5.83;1.50;;;16.70;1.00;;;;;;4971481;28;20393;-56
2023/04/28 18:26:32;;;;;;;4.70;1.20;;;16.60;1.00;;;;;;4971043;28;20632;-57
2023/04/28 18:28:57;;;;;;;5.10;1.30;;;16.50;1.00;;;;;;4971562;28;20477;-56
2023/04/28 18:31:23;;;;;;;5.00;1.40;;;16.30;1.00;;;;;;4971183;28;20415;-56
2023/04/28 18:33:48;;;;;;;6.03;1.60;;;16.30;1.00;;;;;;4971347;28;20858;-56
2023/04/28 18:36:14;;;;;;;6.50;1.70;;;16.10;1.00;;;;;;4971017;28;20439;-56
2023/04/28 18:38:40;;;;;;;6.00;1.53;;;16.00;1.00;;;;;;4970966;28;20419;-56
2023/04/28 18:41:16;;;;;;;5.20;1.40;;;15.90;1.00;;;;;;4971298;28;20459;-56
2023/04/28 18:43:42;;;;;;;5.10;1.10;;;15.80;1.00;;;;;;4971316;28;20416;-56
2023/04/28 18:46:09;;;;;;;5.03;1.20;;;15.80;1.00;;;;;;4971050;28;20395;-56
2023/04/28 18:48:35;;;;;;;5.57;1.50;;;15.70;1.00;;;;;;4970518;28;20497;-56
2023/04/28 18:51:02;;;;;;;5.18;1.20;;;15.60;1.00;;;;;;4970921;28;20741;-56
2023/04/28 18:53:28;;;;;;;4.90;1.10;;;15.60;1.00;;;;;;4970136;28;20396;-55
2023/04/28 18:55:56;;;;;;;4.80;1.40;;;15.60;1.00;;;;;;4971020;28;20408;-55
2023/04/28 18:58:26;;;;;;;5.43;1.50;;;15.60;1.00;;;;;;4970282;28;20411;-55
2023/04/28 19:00:52;;;;;;;5.53;1.40;;;15.50;1.00;;;;;;4970642;28;20714;-55
2023/04/28 19:03:18;;;;;;;5.10;1.10;;;15.60;1.00;;;;;;4970163;28;20808;-56
2023/04/28 19:05:45;;;;;;;4.30;1.30;;;15.50;1.00;;;;;;4970647;28;20392;-55
2023/04/28 19:08:11;;;;;;;5.50;1.40;;;15.50;1.00;;;;;;4970805;28;20404;-55
2023/04/28 19:10:36;;;;;;;4.80;1.40;;;15.50;1.00;;;;;;4970633;28;20481;-56
2023/04/28 19:13:02;;;;;;;4.70;1.50;;;15.40;1.00;;;;;;4970891;28;20761;-55
2023/04/28 19:15:28;;;;;;;6.90;1.73;;;15.50;1.00;;;;;;4963793;28;20416;-55
2023/04/28 19:17:54;;;;;;;6.20;1.60;;;15.40;1.00;;;;;;4940654;29;20488;-56
2023/04/28 19:20:21;;;;;;;5.40;1.70;;;15.40;1.00;;;;;;4957208;28;20389;-55
2023/04/28 19:22:47;;;;;;;4.90;1.50;;;15.40;1.00;;;;;;4970332;28;20438;-56
2023/04/28 19:25:15;;;;;;;5.85;1.63;;;15.40;1.00;;;;;;4976828;28;20384;-56
2023/04/28 19:27:42;;;;;;;4.97;1.70;;;15.30;1.00;;;;;;4973789;28;20423;-55
2023/04/28 19:30:11;;;;;;;4.80;1.40;;;15.30;1.00;;;;;;4977045;28;20388;-55
2023/04/28 19:32:36;;;;;;;5.47;1.90;;;15.20;1.00;;;;;;4976019;28;20892;-55
2023/04/28 19:35:03;;;;;;;5.43;1.95;;;15.20;1.00;;;;;;4976383;28;20419;-55
2023/04/28 19:37:29;;;;;;;6.82;2.92;;;15.10;1.00;;;;;;4974606;28;20494;-56
2023/04/28 19:39:55;;;;;;;5.30;2.00;;;15.00;1.00;;;;;;4975945;28;20415;-56
2023/04/28 19:42:21;;;;;;;6.30;2.97;;;15.00;1.00;;;;;;4976276;28;20876;-55
2023/04/28 19:44:47;;;;;;;5.47;2.30;;;14.80;1.00;;;;;;4976916;28;20396;-55
2023/04/28 19:47:21;;;;;;;6.60;2.30;;;14.80;1.00;;;;;;4977226;28;20400;-56
2023/04/28 19:49:47;;;;;;;6.60;1.90;;;14.70;1.00;;;;;;4976957;28;20417;-55
2023/04/28 19:52:12;;;;;;;7.80;2.10;;;14.50;1.00;;;;;;4976835;28;20395;-55
2023/04/28 19:54:38;;;;;;;6.70;1.92;;;14.50;1.00;;;;;;4976229;28;20838;-56
2023/04/28 19:57:04;;;;;;;5.15;1.70;;;14.40;1.00;;;;;;4976949;28;20451;-57
2023/04/28 19:59:29;;;;;;;5.83;1.70;;;14.50;1.00;;;;;;4976342;28;20483;-56
2023/04/28 20:01:55;;;;;;;5.17;1.73;;;14.40;1.00;;;;;;4977011;28;20384;-56
2023/04/28 20:04:21;;;;;;;6.35;1.33;;;14.40;1.00;;;;;;4976145;28;20416;-56
2023/04/28 20:06:47;;;;;;;5.87;2.00;;;14.40;1.00;;;;;;4976977;28;20475;-56
2023/04/28 20:09:12;;;;;;;5.22;1.90;;;14.50;1.00;;;;;;4976804;28;20396;-55
2023/04/28 20:11:39;;;;;;;5.00;1.80;;;14.40;1.00;;;;;;4976220;28;20391;-55
2023/04/28 20:14:04;;;;;;;6.53;1.70;;;14.50;1.00;;;;;;4977056;28;20414;-55
2023/04/28 20:16:31;;;;;;;5.20;1.80;;;14.50;1.00;;;;;;4976240;28;20392;-56
2023/04/28 20:18:56;;;;;;;7.68;1.90;;;14.40;1.00;;;;;;4976708;28;20396;-55
2023/04/28 20:21:22;;;;;;;6.90;1.90;;;14.40;1.00;;;;;;4975839;28;20394;-55
2023/04/28 20:23:47;;;;;;;5.90;1.60;;;14.40;1.00;;;;;;4976754;28;20388;-55
2023/04/28 20:26:14;;;;;;;5.40;2.00;;;14.30;1.00;;;;;;4976713;28;20399;-55
2023/04/28 20:28:42;;;;;;;6.93;1.80;;;14.20;1.00;;;;;;4972681;28;20802;-55
2023/04/28 20:31:08;;;;;;;5.22;1.90;;;14.20;1.00;;;;;;4973584;28;20494;-55
2023/04/28 20:33:34;;;;;;;5.32;1.90;;;14.20;1.00;;;;;;4973104;28;20423;-55
2023/04/28 20:35:59;;;;;;;5.75;2.00;;;14.10;1.00;;;;;;4972971;28;20879;-56
2023/04/28 20:38:26;;;;;;;5.90;1.90;;;14.10;1.00;;;;;;4973152;28;20395;-55
2023/04/28 20:40:51;;;;;;;5.18;1.92;;;14.10;1.00;;;;;;4973666;28;20398;-55
2023/04/28 20:43:17;;;;;;;6.83;1.90;;;14.10;1.00;;;;;;4973026;28;20967;-55
2023/04/28 20:45:43;;;;;;;5.63;2.20;;;14.20;1.00;;;;;;4973055;28;20889;-55
2023/04/28 20:48:09;;;;;;;7.00;2.00;;;14.00;1.00;;;;;;4973424;28;20388;-55
2023/04/28 20:50:37;;;;;;;5.20;1.70;;;14.00;1.00;;;;;;4972476;28;20483;-55
2023/04/28 20:53:03;;;;;;;6.38;2.10;;;14.00;1.00;;;;;;4973204;28;20393;-55
2023/04/28 20:55:28;;;;;;;7.30;2.00;;;13.90;1.00;;;;;;4972898;28;20426;-55
2023/04/28 20:57:54;;;;;;;5.95;1.67;;;13.90;1.00;;;;;;4973329;28;20432;-55
2023/04/28 21:00:20;;;;;;;6.00;2.03;;;13.90;1.00;;;;;;4972729;28;20396;-56
2023/04/28 21:02:46;;;;;;;6.30;2.35;;;14.10;1.00;;;;;;4973027;28;20448;-55
2023/04/28 21:05:11;;;;;;;5.00;2.00;;;14.10;1.00;;;;;;4973037;28;20886;-55
2023/04/28 21:07:37;;;;;;;5.43;2.03;;;14.30;9.40;;;;;;4972318;28;20381;-55
2023/04/28 21:10:03;;;;;;;8.02;1.90;;;14.30;1.00;;;;;;4972835;28;20399;-55
2023/04/28 21:12:28;;;;;;;7.00;2.10;;;14.30;9.80;;;;;;4972881;28;20767;-55
2023/04/28 21:14:54;;;;;;;5.18;1.90;;;14.40;13.50;;;;;;4972986;28;20412;-55
2023/04/28 21:17:19;;;;;;;7.22;2.00;;;14.50;14.70;;;;;;4972507;28;20979;-55
2023/04/28 21:19:46;;;;;;;5.40;2.17;;;14.60;12.20;;;;;;4972741;28;20443;-55
2023/04/28 21:22:13;;;;;;;5.50;2.10;;;14.60;14.60;;;;;;4972619;28;20925;-55
2023/04/28 21:24:38;;;;;;;5.80;2.22;;;14.70;8.10;;;;;;4971931;28;20512;-55
2023/04/28 21:27:04;;;;;;;6.00;2.30;;;14.80;8.00;;;;;;4972563;28;20409;-55
2023/04/28 21:29:30;;;;;;;5.40;2.17;;;14.70;13.20;;;;;;4971418;28;20451;-55
2023/04/28 21:31:56;;;;;;;5.47;2.20;;;14.80;7.10;;;;;;4972458;28;20388;-55
2023/04/28 21:34:22;;;;;;;4.72;1.70;;;14.90;1.00;;;;;;4972308;28;20835;-55
2023/04/28 21:36:47;;;;;;;7.83;2.27;;;15.00;1.00;;;;;;4972132;28;20407;-55
2023/04/28 21:39:13;;;;;;;5.60;2.30;;;15.00;1.00;;;;;;4971649;28;20400;-55
2023/04/28 21:41:40;;;;;;;7.47;2.35;;;15.00;1.00;;;;;;4971687;28;20482;-55
2023/04/28 21:44:05;;;;;;;5.10;1.92;;;14.90;1.00;;;;;;4972512;28;20625;-55
2023/04/28 21:46:31;;;;;;;5.80;2.33;;;14.90;1.00;;;;;;4972195;28;20497;-55
2023/04/28 21:48:56;;;;;;;5.40;2.20;;;14.90;1.00;;;;;;4971984;28;20396;-55
2023/04/28 21:51:23;;;;;;;5.40;2.00;;;14.90;1.00;;;;;;4971214;28;20920;-55
2023/04/28 21:53:48;;;;;;;6.10;2.13;;;14.90;1.00;;;;;;4972360;28;20956;-55
2023/04/28 21:56:16;;;;;;;5.70;2.20;;;15.00;1.00;;;;;;4972157;28;20389;-55
2023/04/28 21:58:41;;;;;;;6.40;2.40;;;14.80;1.00;;;;;;4971301;28;20396;-55
2023/04/28 22:01:07;;;;;;;5.65;2.30;;;14.80;1.00;;;;;;4972153;28;20797;-55
2023/04/28 22:03:34;;;;;;;5.85;2.38;;;14.80;1.00;;;;;;4971350;28;20396;-55
2023/04/28 22:06:00;;;;;;;6.53;2.25;;;14.70;1.00;;;;;;4971725;28;20394;-55
2023/04/28 22:08:26;;;;;;;5.75;2.38;;;14.60;1.00;;;;;;4971089;28;20397;-55
2023/04/28 22:10:52;;;;;;;6.10;2.60;;;14.60;1.00;;;;;;4972024;28;20483;-55
2023/04/28 22:13:17;;;;;;;6.00;2.37;;;14.50;1.00;;;;;;4971396;28;20443;-55
2023/04/28 22:15:43;;;;;;;6.97;2.60;;;14.40;1.00;;;;;;4971442;28;20912;-55
2023/04/28 22:18:09;;;;;;;6.50;2.20;;;14.30;1.00;;;;;;4971666;28;20387;-55
2023/04/28 22:20:34;;;;;;;6.13;2.30;;;14.30;1.00;;;;;;4953928;28;20385;-55
2023/04/28 22:23:00;;;;;;;6.07;2.20;;;14.30;1.00;;;;;;4971576;28;20397;-55
2023/04/28 22:25:25;;;;;;;5.80;2.20;;;14.20;1.00;;;;;;4971035;28;20798;-56
2023/04/28 22:27:51;;;;;;;6.43;2.30;;;14.10;1.00;;;;;;4971487;28;20419;-55
2023/04/28 22:30:17;;;;;;;6.57;2.30;;;13.90;1.00;;;;;;4971645;28;20514;-55
2023/04/28 22:32:43;;;;;;;5.60;2.30;;;13.90;1.00;;;;;;4971168;28;20396;-55
2023/04/28 22:35:15;;;;;;;6.65;2.70;;;13.90;1.00;;;;;;4971665;28;20452;-55
2023/04/28 22:37:42;;;;;;;5.70;2.40;;;13.90;1.00;;;;;;4970787;28;20427;-55
2023/04/28 22:40:08;;;;;;;6.60;2.30;;;13.80;1.00;;;;;;4971325;28;20456;-55
2023/04/28 22:42:38;;;;;;;6.57;2.30;;;13.90;3.30;;;;;;4970368;28;20403;-55
2023/04/28 22:45:05;;;;;;;5.72;2.35;;;13.80;1.00;;;;;;4971260;28;20419;-55
2023/04/28 22:47:32;;;;;;;7.13;2.40;;;13.80;11.00;;;;;;4970637;28;20384;-55
2023/04/28 22:49:58;;;;;;;5.93;2.42;;;13.70;1.50;;;;;;4971084;28;20389;-55
2023/04/28 22:52:24;;;;;;;5.80;2.20;;;13.70;5.60;;;;;;4970264;28;20384;-55
2023/04/28 22:54:51;;;;;;;7.30;2.30;;;13.70;11.10;;;;;;4971125;28;20404;-55
2023/04/28 22:57:17;;;;;;;5.95;2.60;;;13.70;3.70;;;;;;4970715;28;20460;-55
2023/04/28 22:59:43;;;;;;;6.73;2.90;;;13.60;1.00;;;;;;4970563;28;20866;-55
2023/04/28 23:02:10;;;;;;;5.72;2.30;;;13.60;16.70;;;;;;4971113;28;20392;-55
2023/04/28 23:04:36;;;;;;;7.40;2.80;;;13.60;25.80;;;;;;4970443;28;20410;-55
2023/04/28 23:07:02;;;;;;;7.90;2.47;;;13.50;30.30;;;;;;4971740;28;20945;-55
2023/04/28 23:09:27;;;;;;;6.47;2.50;;;13.50;24.90;;;;;;4969975;28;20380;-55
2023/04/28 23:11:53;;;;;;;6.60;2.90;;;13.50;23.50;;;;;;4971095;28;20930;-55
2023/04/28 23:14:18;;;;;;;6.13;2.60;;;13.50;32.30;;;;;;4971100;28;20416;-55
2023/04/28 23:16:44;;;;;;;6.10;2.60;;;13.50;28.50;;;;;;4970677;28;20758;-55
2023/04/28 23:19:09;;;;;;;6.40;2.40;;;13.40;19.00;;;;;;4970842;28;20388;-55
2023/04/28 23:21:36;;;;;;;6.57;2.33;;;13.40;18.40;;;;;;4970395;28;20384;-55
2023/04/28 23:24:01;;;;;;;5.55;2.40;;;13.40;23.60;;;;;;4971421;28;20411;-55
2023/04/28 23:26:27;;;;;;;5.80;2.40;;;13.40;23.90;;;;;;4969844;28;20462;-55
2023/04/28 23:28:52;;;;;;;7.90;2.90;;;13.40;28.40;;;;;;4970897;28;20423;-55
2023/04/28 23:31:18;;;;;;;6.50;2.50;;;13.40;26.00;;;;;;4971003;28;20411;-55
2023/04/28 23:33:44;;;;;;;5.50;2.30;;;13.50;20.20;;;;;;4971028;28;20707;-55
2023/04/28 23:36:11;;;;;;;5.50;2.40;;;13.40;11.20;;;;;;4971104;28;20777;-55
2023/04/28 23:38:36;;;;;;;6.60;2.60;;;13.30;17.40;;;;;;4970049;28;20392;-55
2023/04/28 23:41:05;;;;;;;6.30;2.60;;;13.30;19.20;;;;;;4971230;28;20384;-54
2023/04/28 23:43:31;;;;;;;7.30;2.85;;;13.20;13.10;;;;;;4970890;28;20399;-54
2023/04/28 23:45:56;;;;;;;5.85;2.50;;;13.20;17.40;;;;;;4970648;28;20396;-54
2023/04/28 23:48:22;;;;;;;5.43;2.30;;;13.20;27.30;;;;;;4970034;28;20802;-55
2023/04/28 23:50:48;;;;;;;6.00;2.47;;;13.20;25.40;;;;;;4970982;28;20423;-55
2023/04/28 23:53:13;;;;;;;7.97;2.42;;;13.20;30.90;;;;;;4971030;28;20395;-55
2023/04/28 23:55:39;;;;;;;6.07;2.53;;;13.20;20.10;;;;;;4970064;28;20701;-55
2023/04/28 23:58:04;;;;;;;5.68;2.45;;;13.10;21.20;;;;;;4970913;28;20455;-54
